sensor_id;sensor_type;location;lat;lon;timestamp;temperature;humidity
14252;DHT22;7210;51.502;10.722;2023-04-03T00:01:07;1.20;99.90
14252;DHT22;7210;51.502;10.722;2023-04-03T00:03:35;1.10;99.90
14252;DHT22;7210;51.502;10.722;2023-04-03T00:06:09;1.10;99.90
14252;DHT22;7210;51.502;10.722;2023-04-03T00:08:38;1.10;99.90
14252;DHT22;7210;51.502;10.722;2023-04-03T00:11:06;1.10;99.90
14252;DHT22;7210;51.502;10.722;2023-04-03T00:13:34;1.00;99.90
14252;DHT22;7210;51.502;10.722;2023-04-03T00:16:01;0.90;99.90
14252;DHT22;7210;51.502;10.722;2023-04-03T00:18:30;0.80;99.90
14252;DHT22;7210;51.502;10.722;2023-04-03T00:20:58;0.80;99.90
14252;DHT22;7210;51.502;10.722;2023-04-03T00:23:25;0.80;99.90
14252;DHT22;7210;51.502;10.722;2023-04-03T00:25:52;0.80;99.90
14252;DHT22;7210;51.502;10.722;2023-04-03T00:28:20;0.80;99.90
14252;DHT22;7210;51.502;10.722;2023-04-03T00:30:49;0.80;99.90
14252;DHT22;7210;51.502;10.722;2023-04-03T00:33:17;0.70;99.90
14252;DHT22;7210;51.502;10.722;2023-04-03T00:35:51;0.80;99.90
14252;DHT22;7210;51.502;10.722;2023-04-03T00:38:19;0.80;99.90
14252;DHT22;7210;51.502;10.722;2023-04-03T00:40:47;0.80;99.90
14252;DHT22;7210;51.502;10.722;2023-04-03T00:43:18;0.80;99.90
14252;DHT22;7210;51.502;10.722;2023-04-03T00:45:48;0.80;99.90
14252;DHT22;7210;51.502;10.722;2023-04-03T00:48:19;0.80;99.90
14252;DHT22;7210;51.502;10.722;2023-04-03T00:50:50;0.80;99.90
14252;DHT22;7210;51.502;10.722;2023-04-03T00:53:22;0.80;99.90
14252;DHT22;7210;51.502;10.722;2023-04-03T00:55:54;0.80;99.90
14252;DHT22;7210;51.502;10.722;2023-04-03T00:58:27;0.80;99.90
14252;DHT22;7210;51.502;10.722;2023-04-03T01:01:03;0.80;99.90
14252;DHT22;7210;51.502;10.722;2023-04-03T01:03:33;0.80;99.90
14252;DHT22;7210;51.502;10.722;2023-04-03T01:06:04;0.80;99.90
14252;DHT22;7210;51.502;10.722;2023-04-03T01:08:32;0.80;99.90
14252;DHT22;7210;51.502;10.722;2023-04-03T01:11:00;0.80;99.90
14252;DHT22;7210;51.502;10.722;2023-04-03T01:13:29;0.80;99.90
14252;DHT22;7210;51.502;10.722;2023-04-03T01:16:01;0.80;99.90
14252;DHT22;7210;51.502;10.722;2023-04-03T01:18:29;0.80;99.90
14252;DHT22;7210;51.502;10.722;2023-04-03T01:24:34;0.70;99.90
14252;DHT22;7210;51.502;10.722;2023-04-03T01:27:08;0.60;99.90
14252;DHT22;7210;51.502;10.722;2023-04-03T01:29:37;0.60;99.90
14252;DHT22;7210;51.502;10.722;2023-04-03T01:32:07;0.60;99.90
14252;DHT22;7210;51.502;10.722;2023-04-03T01:34:34;0.60;99.90
14252;DHT22;7210;51.502;10.722;2023-04-03T01:37:01;0.50;99.90
14252;DHT22;7210;51.502;10.722;2023-04-03T01:39:28;0.50;99.90
14252;DHT22;7210;51.502;10.722;2023-04-03T01:41:56;0.60;99.90
14252;DHT22;7210;51.502;10.722;2023-04-03T01:44:29;0.60;99.90
14252;DHT22;7210;51.502;10.722;2023-04-03T01:46:57;0.50;99.90
14252;DHT22;7210;51.502;10.722;2023-04-03T01:49:27;0.50;99.90
14252;DHT22;7210;51.502;10.722;2023-04-03T01:51:55;0.50;99.90
14252;DHT22;7210;51.502;10.722;2023-04-03T01:54:23;0.40;99.90
14252;DHT22;7210;51.502;10.722;2023-04-03T01:56:51;0.40;99.90
14252;DHT22;7210;51.502;10.722;2023-04-03T01:59:19;0.40;99.90
14252;DHT22;7210;51.502;10.722;2023-04-03T02:01:50;0.40;99.90
14252;DHT22;7210;51.502;10.722;2023-04-03T02:07:08;0.30;99.90
14252;DHT22;7210;51.502;10.722;2023-04-03T02:09:36;0.20;99.90
14252;DHT22;7210;51.502;10.722;2023-04-03T02:12:03;0.10;99.90
14252;DHT22;7210;51.502;10.722;2023-04-03T02:17:22;0.00;99.90
14252;DHT22;7210;51.502;10.722;2023-04-03T02:19:49;-0.10;99.90
14252;DHT22;7210;51.502;10.722;2023-04-03T02:22:18;-0.30;99.90
14252;DHT22;7210;51.502;10.722;2023-04-03T02:24:45;-0.30;99.90
14252;DHT22;7210;51.502;10.722;2023-04-03T02:27:13;-0.40;99.90
14252;DHT22;7210;51.502;10.722;2023-04-03T02:29:40;-0.40;99.90
14252;DHT22;7210;51.502;10.722;2023-04-03T02:32:08;-0.40;99.90
14252;DHT22;7210;51.502;10.722;2023-04-03T02:34:35;-0.50;99.90
14252;DHT22;7210;51.502;10.722;2023-04-03T02:37:04;-0.50;99.90
14252;DHT22;7210;51.502;10.722;2023-04-03T02:39:34;-0.50;99.90
14252;DHT22;7210;51.502;10.722;2023-04-03T02:42:02;-0.50;99.90
14252;DHT22;7210;51.502;10.722;2023-04-03T02:44:29;-0.60;99.90
14252;DHT22;7210;51.502;10.722;2023-04-03T02:46:57;-0.60;99.90
14252;DHT22;7210;51.502;10.722;2023-04-03T02:49:24;-0.70;99.90
14252;DHT22;7210;51.502;10.722;2023-04-03T02:51:55;-0.80;99.90
14252;DHT22;7210;51.502;10.722;2023-04-03T02:54:22;-0.80;99.90
14252;DHT22;7210;51.502;10.722;2023-04-03T02:56:56;-0.90;99.90
14252;DHT22;7210;51.502;10.722;2023-04-03T02:59:24;-0.80;99.90
14252;DHT22;7210;51.502;10.722;2023-04-03T03:01:51;-0.80;99.90
14252;DHT22;7210;51.502;10.722;2023-04-03T03:04:19;-0.80;99.90
14252;DHT22;7210;51.502;10.722;2023-04-03T03:06:46;-0.80;99.90
14252;DHT22;7210;51.502;10.722;2023-04-03T03:09:13;-0.90;99.90
14252;DHT22;7210;51.502;10.722;2023-04-03T03:11:42;-0.90;99.90
14252;DHT22;7210;51.502;10.722;2023-04-03T03:14:10;-0.90;99.90
14252;DHT22;7210;51.502;10.722;2023-04-03T03:16:37;-0.80;99.90
14252;DHT22;7210;51.502;10.722;2023-04-03T03:19:05;-0.60;99.90
14252;DHT22;7210;51.502;10.722;2023-04-03T03:21:32;-0.60;99.90
14252;DHT22;7210;51.502;10.722;2023-04-03T03:24:01;-0.50;99.90
14252;DHT22;7210;51.502;10.722;2023-04-03T03:26:28;-0.50;99.90
14252;DHT22;7210;51.502;10.722;2023-04-03T03:28:56;-0.40;99.90
14252;DHT22;7210;51.502;10.722;2023-04-03T03:31:24;-0.40;99.90
14252;DHT22;7210;51.502;10.722;2023-04-03T03:33:52;-0.40;99.90
14252;DHT22;7210;51.502;10.722;2023-04-03T03:36:19;-0.50;99.90
14252;DHT22;7210;51.502;10.722;2023-04-03T03:38:46;-0.50;99.90
14252;DHT22;7210;51.502;10.722;2023-04-03T03:41:13;-0.60;99.90
14252;DHT22;7210;51.502;10.722;2023-04-03T03:43:43;-0.60;99.90
14252;DHT22;7210;51.502;10.722;2023-04-03T03:46:12;-0.60;99.90
14252;DHT22;7210;51.502;10.722;2023-04-03T03:48:40;-0.70;99.90
14252;DHT22;7210;51.502;10.722;2023-04-03T03:51:08;-0.70;99.90
14252;DHT22;7210;51.502;10.722;2023-04-03T03:53:36;-0.70;99.90
14252;DHT22;7210;51.502;10.722;2023-04-03T03:56:07;-0.80;99.90
14252;DHT22;7210;51.502;10.722;2023-04-03T03:58:36;-0.90;99.90
14252;DHT22;7210;51.502;10.722;2023-04-03T04:01:04;-1.00;99.90
14252;DHT22;7210;51.502;10.722;2023-04-03T04:03:38;-1.00;99.90
14252;DHT22;7210;51.502;10.722;2023-04-03T04:06:08;-1.10;99.90
14252;DHT22;7210;51.502;10.722;2023-04-03T04:08:36;-1.20;99.90
14252;DHT22;7210;51.502;10.722;2023-04-03T04:11:05;-1.20;99.90
14252;DHT22;7210;51.502;10.722;2023-04-03T04:13:33;-1.20;99.90
14252;DHT22;7210;51.502;10.722;2023-04-03T04:16:01;-1.30;99.90
14252;DHT22;7210;51.502;10.722;2023-04-03T04:18:29;-1.40;99.90
14252;DHT22;7210;51.502;10.722;2023-04-03T04:20:57;-1.50;99.90
14252;DHT22;7210;51.502;10.722;2023-04-03T04:23:25;-1.50;99.90
14252;DHT22;7210;51.502;10.722;2023-04-03T04:25:53;-1.60;99.90
14252;DHT22;7210;51.502;10.722;2023-04-03T04:28:21;-1.60;99.90
14252;DHT22;7210;51.502;10.722;2023-04-03T04:30:51;-1.70;99.90
14252;DHT22;7210;51.502;10.722;2023-04-03T04:33:20;-1.60;99.90
14252;DHT22;7210;51.502;10.722;2023-04-03T04:35:48;-1.70;99.90
14252;DHT22;7210;51.502;10.722;2023-04-03T04:38:19;-1.70;99.90
14252;DHT22;7210;51.502;10.722;2023-04-03T04:40:47;-1.80;99.90
14252;DHT22;7210;51.502;10.722;2023-04-03T04:43:15;-1.80;99.90
14252;DHT22;7210;51.502;10.722;2023-04-03T04:45:47;-1.70;99.90
14252;DHT22;7210;51.502;10.722;2023-04-03T04:48:17;-1.80;99.90
14252;DHT22;7210;51.502;10.722;2023-04-03T04:50:45;-1.80;99.90
14252;DHT22;7210;51.502;10.722;2023-04-03T04:53:13;-1.80;99.90
14252;DHT22;7210;51.502;10.722;2023-04-03T04:55:43;-1.80;99.90
14252;DHT22;7210;51.502;10.722;2023-04-03T04:58:13;-1.90;99.90
14252;DHT22;7210;51.502;10.722;2023-04-03T05:00:41;-1.90;99.90
14252;DHT22;7210;51.502;10.722;2023-04-03T05:03:10;-2.00;99.90
14252;DHT22;7210;51.502;10.722;2023-04-03T05:05:37;-2.00;99.90
14252;DHT22;7210;51.502;10.722;2023-04-03T05:08:05;-2.00;99.90
14252;DHT22;7210;51.502;10.722;2023-04-03T05:10:34;-2.00;99.90
14252;DHT22;7210;51.502;10.722;2023-04-03T05:13:03;-2.00;99.90
14252;DHT22;7210;51.502;10.722;2023-04-03T05:15:30;-2.00;99.90
14252;DHT22;7210;51.502;10.722;2023-04-03T05:17:57;-2.00;99.90
14252;DHT22;7210;51.502;10.722;2023-04-03T05:20:25;-2.00;99.90
14252;DHT22;7210;51.502;10.722;2023-04-03T05:22:52;-2.10;99.90
14252;DHT22;7210;51.502;10.722;2023-04-03T05:25:19;-2.00;99.90
14252;DHT22;7210;51.502;10.722;2023-04-03T05:27:47;-2.00;99.90
14252;DHT22;7210;51.502;10.722;2023-04-03T05:30:16;-2.00;99.90
14252;DHT22;7210;51.502;10.722;2023-04-03T05:32:44;-2.00;99.90
14252;DHT22;7210;51.502;10.722;2023-04-03T05:35:18;-1.90;99.90
14252;DHT22;7210;51.502;10.722;2023-04-03T05:37:49;-1.80;99.90
14252;DHT22;7210;51.502;10.722;2023-04-03T05:40:18;-1.70;99.90
14252;DHT22;7210;51.502;10.722;2023-04-03T05:42:50;-1.60;99.90
14252;DHT22;7210;51.502;10.722;2023-04-03T05:45:22;-1.50;99.90
14252;DHT22;7210;51.502;10.722;2023-04-03T05:47:50;-1.50;99.90
14252;DHT22;7210;51.502;10.722;2023-04-03T05:50:18;-1.40;99.90
14252;DHT22;7210;51.502;10.722;2023-04-03T05:52:50;-1.40;99.90
14252;DHT22;7210;51.502;10.722;2023-04-03T05:55:25;-1.30;99.90
14252;DHT22;7210;51.502;10.722;2023-04-03T05:57:53;-1.20;99.90
14252;DHT22;7210;51.502;10.722;2023-04-03T06:00:22;-1.20;99.90
14252;DHT22;7210;51.502;10.722;2023-04-03T06:02:59;-1.10;99.90
14252;DHT22;7210;51.502;10.722;2023-04-03T06:05:26;-1.10;99.90
14252;DHT22;7210;51.502;10.722;2023-04-03T06:07:53;-1.00;99.90
14252;DHT22;7210;51.502;10.722;2023-04-03T06:10:21;-1.00;99.90
14252;DHT22;7210;51.502;10.722;2023-04-03T06:12:50;-0.90;99.90
14252;DHT22;7210;51.502;10.722;2023-04-03T06:15:17;-0.90;99.90
14252;DHT22;7210;51.502;10.722;2023-04-03T06:17:46;-0.70;99.90
14252;DHT22;7210;51.502;10.722;2023-04-03T06:20:14;-0.60;99.90
14252;DHT22;7210;51.502;10.722;2023-04-03T06:22:42;-0.50;99.90
14252;DHT22;7210;51.502;10.722;2023-04-03T06:25:10;-0.40;99.90
14252;DHT22;7210;51.502;10.722;2023-04-03T06:27:38;-0.20;99.90
14252;DHT22;7210;51.502;10.722;2023-04-03T06:30:06;-0.20;99.90
14252;DHT22;7210;51.502;10.722;2023-04-03T06:32:34;0.10;99.90
14252;DHT22;7210;51.502;10.722;2023-04-03T06:35:03;0.10;99.90
14252;DHT22;7210;51.502;10.722;2023-04-03T06:37:31;0.30;99.90
14252;DHT22;7210;51.502;10.722;2023-04-03T06:39:59;0.40;99.90
14252;DHT22;7210;51.502;10.722;2023-04-03T06:42:26;0.50;99.90
14252;DHT22;7210;51.502;10.722;2023-04-03T06:45:00;0.50;99.90
14252;DHT22;7210;51.502;10.722;2023-04-03T06:47:27;0.50;99.90
14252;DHT22;7210;51.502;10.722;2023-04-03T06:49:54;0.60;99.90
14252;DHT22;7210;51.502;10.722;2023-04-03T06:52:23;0.60;99.90
14252;DHT22;7210;51.502;10.722;2023-04-03T06:54:50;0.70;99.90
14252;DHT22;7210;51.502;10.722;2023-04-03T06:57:22;0.80;99.90
14252;DHT22;7210;51.502;10.722;2023-04-03T06:59:50;0.90;99.90
14252;DHT22;7210;51.502;10.722;2023-04-03T07:02:17;0.90;99.90
14252;DHT22;7210;51.502;10.722;2023-04-03T07:04:44;1.00;99.90
14252;DHT22;7210;51.502;10.722;2023-04-03T07:07:11;1.00;99.90
14252;DHT22;7210;51.502;10.722;2023-04-03T07:09:40;1.10;99.90
14252;DHT22;7210;51.502;10.722;2023-04-03T07:12:08;1.20;99.90
14252;DHT22;7210;51.502;10.722;2023-04-03T07:14:35;1.20;99.90
14252;DHT22;7210;51.502;10.722;2023-04-03T07:17:02;1.30;99.90
14252;DHT22;7210;51.502;10.722;2023-04-03T07:19:29;1.30;99.90
14252;DHT22;7210;51.502;10.722;2023-04-03T07:21:57;1.30;99.90
14252;DHT22;7210;51.502;10.722;2023-04-03T07:24:24;1.40;99.90
14252;DHT22;7210;51.502;10.722;2023-04-03T07:26:53;1.40;99.90
14252;DHT22;7210;51.502;10.722;2023-04-03T07:29:20;1.40;99.90
14252;DHT22;7210;51.502;10.722;2023-04-03T07:31:47;1.40;99.90
14252;DHT22;7210;51.502;10.722;2023-04-03T07:34:15;1.50;99.90
14252;DHT22;7210;51.502;10.722;2023-04-03T07:36:42;1.60;99.90
14252;DHT22;7210;51.502;10.722;2023-04-03T07:39:09;1.70;99.90
14252;DHT22;7210;51.502;10.722;2023-04-03T07:41:36;1.80;99.90
14252;DHT22;7210;51.502;10.722;2023-04-03T07:44:05;2.40;99.90
14252;DHT22;7210;51.502;10.722;2023-04-03T07:46:35;2.20;99.90
14252;DHT22;7210;51.502;10.722;2023-04-03T07:49:02;2.10;99.90
14252;DHT22;7210;51.502;10.722;2023-04-03T07:51:30;2.10;99.90
14252;DHT22;7210;51.502;10.722;2023-04-03T07:53:57;2.20;99.90
14252;DHT22;7210;51.502;10.722;2023-04-03T07:56:24;2.30;99.90
14252;DHT22;7210;51.502;10.722;2023-04-03T07:58:52;2.40;99.90
14252;DHT22;7210;51.502;10.722;2023-04-03T08:01:20;2.50;99.90
14252;DHT22;7210;51.502;10.722;2023-04-03T08:03:47;2.50;99.90
14252;DHT22;7210;51.502;10.722;2023-04-03T08:06:15;2.50;99.90
14252;DHT22;7210;51.502;10.722;2023-04-03T08:08:42;2.60;99.90
14252;DHT22;7210;51.502;10.722;2023-04-03T08:11:09;2.70;99.90
14252;DHT22;7210;51.502;10.722;2023-04-03T08:13:38;2.80;99.90
14252;DHT22;7210;51.502;10.722;2023-04-03T08:16:09;2.80;99.90
14252;DHT22;7210;51.502;10.722;2023-04-03T08:18:39;3.00;99.90
14252;DHT22;7210;51.502;10.722;2023-04-03T08:21:07;3.10;99.90
14252;DHT22;7210;51.502;10.722;2023-04-03T08:23:35;3.30;99.90
14252;DHT22;7210;51.502;10.722;2023-04-03T08:26:07;3.30;99.90
14252;DHT22;7210;51.502;10.722;2023-04-03T08:28:35;3.40;99.90
14252;DHT22;7210;51.502;10.722;2023-04-03T08:31:09;3.40;99.90
14252;DHT22;7210;51.502;10.722;2023-04-03T08:33:39;3.50;99.90
14252;DHT22;7210;51.502;10.722;2023-04-03T08:36:16;3.50;99.90
14252;DHT22;7210;51.502;10.722;2023-04-03T08:38:46;3.60;99.90
14252;DHT22;7210;51.502;10.722;2023-04-03T08:41:16;3.70;99.90
14252;DHT22;7210;51.502;10.722;2023-04-03T08:44:05;3.80;99.90
14252;DHT22;7210;51.502;10.722;2023-04-03T08:46:52;3.90;99.90
14252;DHT22;7210;51.502;10.722;2023-04-03T08:49:31;3.80;99.90
14252;DHT22;7210;51.502;10.722;2023-04-03T08:52:04;3.80;99.90
14252;DHT22;7210;51.502;10.722;2023-04-03T08:54:44;4.00;99.90
14252;DHT22;7210;51.502;10.722;2023-04-03T08:57:20;4.00;99.90
14252;DHT22;7210;51.502;10.722;2023-04-03T08:59:56;4.10;99.90
14252;DHT22;7210;51.502;10.722;2023-04-03T09:02:31;4.00;99.90
14252;DHT22;7210;51.502;10.722;2023-04-03T09:05:09;4.00;99.90
14252;DHT22;7210;51.502;10.722;2023-04-03T09:07:42;3.80;99.90
14252;DHT22;7210;51.502;10.722;2023-04-03T09:10:13;3.70;99.90
14252;DHT22;7210;51.502;10.722;2023-04-03T09:12:44;3.60;99.90
14252;DHT22;7210;51.502;10.722;2023-04-03T09:15:19;3.60;99.90
14252;DHT22;7210;51.502;10.722;2023-04-03T09:17:56;3.60;99.90
14252;DHT22;7210;51.502;10.722;2023-04-03T09:20:39;3.60;99.90
14252;DHT22;7210;51.502;10.722;2023-04-03T09:23:19;3.80;99.90
14252;DHT22;7210;51.502;10.722;2023-04-03T09:25:54;3.80;99.90
14252;DHT22;7210;51.502;10.722;2023-04-03T09:28:30;3.60;99.90
14252;DHT22;7210;51.502;10.722;2023-04-03T09:31:02;3.60;99.90
14252;DHT22;7210;51.502;10.722;2023-04-03T09:33:43;3.80;99.90
14252;DHT22;7210;51.502;10.722;2023-04-03T09:36:12;4.20;99.90
14252;DHT22;7210;51.502;10.722;2023-04-03T09:38:39;4.60;99.90
14252;DHT22;7210;51.502;10.722;2023-04-03T09:41:15;4.70;99.90
14252;DHT22;7210;51.502;10.722;2023-04-03T09:43:52;4.70;99.90
14252;DHT22;7210;51.502;10.722;2023-04-03T09:46:29;5.00;99.90
14252;DHT22;7210;51.502;10.722;2023-04-03T09:48:59;4.80;99.90
14252;DHT22;7210;51.502;10.722;2023-04-03T09:51:29;4.70;99.90
14252;DHT22;7210;51.502;10.722;2023-04-03T09:53:57;4.60;99.90
14252;DHT22;7210;51.502;10.722;2023-04-03T09:56:27;4.40;99.90
14252;DHT22;7210;51.502;10.722;2023-04-03T09:59:13;4.30;99.90
14252;DHT22;7210;51.502;10.722;2023-04-03T10:01:43;4.20;99.90
14252;DHT22;7210;51.502;10.722;2023-04-03T10:04:24;4.10;99.90
14252;DHT22;7210;51.502;10.722;2023-04-03T10:06:54;4.00;99.90
14252;DHT22;7210;51.502;10.722;2023-04-03T10:09:23;4.00;99.90
14252;DHT22;7210;51.502;10.722;2023-04-03T10:12:03;4.20;99.90
14252;DHT22;7210;51.502;10.722;2023-04-03T10:14:32;4.40;99.90
14252;DHT22;7210;51.502;10.722;2023-04-03T10:17:13;4.80;99.90
14252;DHT22;7210;51.502;10.722;2023-04-03T10:19:47;5.30;99.90
14252;DHT22;7210;51.502;10.722;2023-04-03T10:22:26;5.40;99.90
14252;DHT22;7210;51.502;10.722;2023-04-03T10:25:11;5.40;99.90
14252;DHT22;7210;51.502;10.722;2023-04-03T10:27:52;5.30;99.90
14252;DHT22;7210;51.502;10.722;2023-04-03T10:30:36;5.00;99.90
14252;DHT22;7210;51.502;10.722;2023-04-03T10:33:26;4.90;99.90
14252;DHT22;7210;51.502;10.722;2023-04-03T10:36:11;4.90;99.90
14252;DHT22;7210;51.502;10.722;2023-04-03T10:38:51;4.90;99.90
14252;DHT22;7210;51.502;10.722;2023-04-03T10:41:34;5.00;99.90
14252;DHT22;7210;51.502;10.722;2023-04-03T10:44:17;5.00;99.90
14252;DHT22;7210;51.502;10.722;2023-04-03T10:46:55;4.90;99.90
14252;DHT22;7210;51.502;10.722;2023-04-03T10:49:39;4.90;99.90
14252;DHT22;7210;51.502;10.722;2023-04-03T10:52:19;5.10;99.90
14252;DHT22;7210;51.502;10.722;2023-04-03T10:55:00;5.20;99.90
14252;DHT22;7210;51.502;10.722;2023-04-03T10:57:34;5.30;99.90
14252;DHT22;7210;51.502;10.722;2023-04-03T11:00:05;5.40;99.90
14252;DHT22;7210;51.502;10.722;2023-04-03T11:02:37;5.40;99.90
14252;DHT22;7210;51.502;10.722;2023-04-03T11:05:17;5.50;99.90
14252;DHT22;7210;51.502;10.722;2023-04-03T11:07:54;5.60;99.90
14252;DHT22;7210;51.502;10.722;2023-04-03T11:10:30;5.50;99.90
14252;DHT22;7210;51.502;10.722;2023-04-03T11:13:07;5.70;99.90
14252;DHT22;7210;51.502;10.722;2023-04-03T11:15:38;5.90;99.90
14252;DHT22;7210;51.502;10.722;2023-04-03T11:18:09;5.90;99.90
14252;DHT22;7210;51.502;10.722;2023-04-03T11:20:44;6.10;99.90
14252;DHT22;7210;51.502;10.722;2023-04-03T11:23:21;6.20;99.90
14252;DHT22;7210;51.502;10.722;2023-04-03T11:25:55;6.30;99.90
14252;DHT22;7210;51.502;10.722;2023-04-03T11:28:31;6.50;99.90
14252;DHT22;7210;51.502;10.722;2023-04-03T11:31:05;6.70;99.90
14252;DHT22;7210;51.502;10.722;2023-04-03T11:33:47;6.60;99.90
14252;DHT22;7210;51.502;10.722;2023-04-03T11:36:23;6.50;99.90
14252;DHT22;7210;51.502;10.722;2023-04-03T11:38:56;6.30;99.90
14252;DHT22;7210;51.502;10.722;2023-04-03T11:41:29;6.40;99.90
14252;DHT22;7210;51.502;10.722;2023-04-03T11:44:00;6.30;99.90
14252;DHT22;7210;51.502;10.722;2023-04-03T11:46:52;6.30;99.90
14252;DHT22;7210;51.502;10.722;2023-04-03T11:49:53;6.10;99.90
14252;DHT22;7210;51.502;10.722;2023-04-03T11:52:58;6.10;99.90
14252;DHT22;7210;51.502;10.722;2023-04-03T11:55:53;6.00;99.90
14252;DHT22;7210;51.502;10.722;2023-04-03T11:58:29;6.00;99.90
14252;DHT22;7210;51.502;10.722;2023-04-03T12:01:03;5.90;99.90
14252;DHT22;7210;51.502;10.722;2023-04-03T12:07:02;5.70;99.90
14252;DHT22;7210;51.502;10.722;2023-04-03T12:10:15;5.70;99.90
14252;DHT22;7210;51.502;10.722;2023-04-03T12:12:56;5.80;99.90
14252;DHT22;7210;51.502;10.722;2023-04-03T12:15:53;6.10;99.90
14252;DHT22;7210;51.502;10.722;2023-04-03T12:18:41;6.40;99.90
14252;DHT22;7210;51.502;10.722;2023-04-03T12:21:10;6.30;99.90
14252;DHT22;7210;51.502;10.722;2023-04-03T12:24:00;6.30;99.90
14252;DHT22;7210;51.502;10.722;2023-04-03T12:26:47;6.20;99.90
14252;DHT22;7210;51.502;10.722;2023-04-03T12:29:23;6.00;99.90
14252;DHT22;7210;51.502;10.722;2023-04-03T12:32:06;5.90;99.90
14252;DHT22;7210;51.502;10.722;2023-04-03T12:34:55;6.10;99.90
14252;DHT22;7210;51.502;10.722;2023-04-03T12:38:19;6.50;99.90
14252;DHT22;7210;51.502;10.722;2023-04-03T12:44:18;7.60;99.90
14252;DHT22;7210;51.502;10.722;2023-04-03T12:46:55;7.60;99.90
14252;DHT22;7210;51.502;10.722;2023-04-03T12:49:38;7.60;99.90
14252;DHT22;7210;51.502;10.722;2023-04-03T12:52:18;7.80;99.90
14252;DHT22;7210;51.502;10.722;2023-04-03T12:54:52;7.50;99.90
14252;DHT22;7210;51.502;10.722;2023-04-03T12:57:23;7.20;99.90
14252;DHT22;7210;51.502;10.722;2023-04-03T12:59:52;7.20;99.90
14252;DHT22;7210;51.502;10.722;2023-04-03T13:02:26;7.20;99.90
14252;DHT22;7210;51.502;10.722;2023-04-03T13:04:57;7.00;99.90
14252;DHT22;7210;51.502;10.722;2023-04-03T13:07:28;6.90;99.90
14252;DHT22;7210;51.502;10.722;2023-04-03T13:10:04;6.70;99.90
14252;DHT22;7210;51.502;10.722;2023-04-03T13:12:47;6.70;99.90
14252;DHT22;7210;51.502;10.722;2023-04-03T13:15:18;6.90;99.90
14252;DHT22;7210;51.502;10.722;2023-04-03T13:17:50;7.10;99.90
14252;DHT22;7210;51.502;10.722;2023-04-03T13:20:23;7.10;99.90
14252;DHT22;7210;51.502;10.722;2023-04-03T13:22:57;6.80;99.90
14252;DHT22;7210;51.502;10.722;2023-04-03T13:25:30;6.80;99.90
14252;DHT22;7210;51.502;10.722;2023-04-03T13:28:01;6.80;99.90
14252;DHT22;7210;51.502;10.722;2023-04-03T13:30:32;7.10;99.90
14252;DHT22;7210;51.502;10.722;2023-04-03T13:33:20;7.40;99.90
14252;DHT22;7210;51.502;10.722;2023-04-03T13:35:55;7.30;99.90
14252;DHT22;7210;51.502;10.722;2023-04-03T13:38:26;7.30;99.90
14252;DHT22;7210;51.502;10.722;2023-04-03T13:40:58;7.30;99.90
14252;DHT22;7210;51.502;10.722;2023-04-03T13:43:29;7.30;99.90
14252;DHT22;7210;51.502;10.722;2023-04-03T13:46:05;7.50;99.90
14252;DHT22;7210;51.502;10.722;2023-04-03T13:48:55;7.70;99.90
14252;DHT22;7210;51.502;10.722;2023-04-03T13:51:26;7.60;99.90
14252;DHT22;7210;51.502;10.722;2023-04-03T13:53:56;7.50;99.90
14252;DHT22;7210;51.502;10.722;2023-04-03T13:56:30;7.00;99.90
14252;DHT22;7210;51.502;10.722;2023-04-03T13:59:06;6.80;99.90
14252;DHT22;7210;51.502;10.722;2023-04-03T14:01:52;6.80;99.90
14252;DHT22;7210;51.502;10.722;2023-04-03T14:04:24;6.80;99.90
14252;DHT22;7210;51.502;10.722;2023-04-03T14:06:54;6.70;99.90
14252;DHT22;7210;51.502;10.722;2023-04-03T14:09:23;6.80;99.90
14252;DHT22;7210;51.502;10.722;2023-04-03T14:11:54;7.10;99.90
14252;DHT22;7210;51.502;10.722;2023-04-03T14:14:27;7.10;99.90
14252;DHT22;7210;51.502;10.722;2023-04-03T14:16:58;7.10;99.90
14252;DHT22;7210;51.502;10.722;2023-04-03T14:19:30;7.10;99.90
14252;DHT22;7210;51.502;10.722;2023-04-03T14:22:00;7.20;99.90
14252;DHT22;7210;51.502;10.722;2023-04-03T14:24:38;7.10;99.90
14252;DHT22;7210;51.502;10.722;2023-04-03T14:27:14;6.90;99.90
14252;DHT22;7210;51.502;10.722;2023-04-03T14:29:44;6.90;99.90
14252;DHT22;7210;51.502;10.722;2023-04-03T14:32:13;6.90;99.90
14252;DHT22;7210;51.502;10.722;2023-04-03T14:34:43;6.80;99.90
14252;DHT22;7210;51.502;10.722;2023-04-03T14:37:14;6.70;99.90
14252;DHT22;7210;51.502;10.722;2023-04-03T14:39:44;6.70;99.90
14252;DHT22;7210;51.502;10.722;2023-04-03T14:42:15;6.80;99.90
14252;DHT22;7210;51.502;10.722;2023-04-03T14:44:44;7.10;99.90
14252;DHT22;7210;51.502;10.722;2023-04-03T14:47:12;7.10;99.90
14252;DHT22;7210;51.502;10.722;2023-04-03T14:49:44;7.20;99.90
14252;DHT22;7210;51.502;10.722;2023-04-03T14:52:19;7.10;99.90
14252;DHT22;7210;51.502;10.722;2023-04-03T14:54:49;7.20;99.90
14252;DHT22;7210;51.502;10.722;2023-04-03T14:57:17;7.10;99.90
14252;DHT22;7210;51.502;10.722;2023-04-03T14:59:46;7.00;99.90
14252;DHT22;7210;51.502;10.722;2023-04-03T15:02:26;6.90;99.90
14252;DHT22;7210;51.502;10.722;2023-04-03T15:04:57;6.70;99.90
14252;DHT22;7210;51.502;10.722;2023-04-03T15:07:28;6.60;99.90
14252;DHT22;7210;51.502;10.722;2023-04-03T15:10:09;6.50;99.90
14252;DHT22;7210;51.502;10.722;2023-04-03T15:12:45;6.50;99.90
14252;DHT22;7210;51.502;10.722;2023-04-03T15:15:15;6.50;99.90
14252;DHT22;7210;51.502;10.722;2023-04-03T15:17:46;6.40;99.90
14252;DHT22;7210;51.502;10.722;2023-04-03T15:20:18;6.40;99.90
14252;DHT22;7210;51.502;10.722;2023-04-03T15:22:46;6.40;99.90
14252;DHT22;7210;51.502;10.722;2023-04-03T15:25:14;6.30;99.90
14252;DHT22;7210;51.502;10.722;2023-04-03T15:27:42;6.40;99.90
14252;DHT22;7210;51.502;10.722;2023-04-03T15:30:14;6.40;99.90
14252;DHT22;7210;51.502;10.722;2023-04-03T15:32:43;6.30;99.90
14252;DHT22;7210;51.502;10.722;2023-04-03T15:35:10;6.20;99.90
14252;DHT22;7210;51.502;10.722;2023-04-03T15:37:39;6.10;99.90
14252;DHT22;7210;51.502;10.722;2023-04-03T15:40:07;6.00;99.90
14252;DHT22;7210;51.502;10.722;2023-04-03T15:42:35;6.20;99.90
14252;DHT22;7210;51.502;10.722;2023-04-03T15:45:03;6.10;99.90
14252;DHT22;7210;51.502;10.722;2023-04-03T15:47:31;6.00;99.90
14252;DHT22;7210;51.502;10.722;2023-04-03T15:49:58;6.00;99.90
14252;DHT22;7210;51.502;10.722;2023-04-03T15:52:25;6.00;99.90
14252;DHT22;7210;51.502;10.722;2023-04-03T15:54:54;6.00;99.90
14252;DHT22;7210;51.502;10.722;2023-04-03T15:57:21;5.70;99.90
14252;DHT22;7210;51.502;10.722;2023-04-03T15:59:51;5.50;99.90
14252;DHT22;7210;51.502;10.722;2023-04-03T16:02:18;5.40;99.90
14252;DHT22;7210;51.502;10.722;2023-04-03T16:04:46;5.30;99.90
14252;DHT22;7210;51.502;10.722;2023-04-03T16:07:16;5.30;99.90
14252;DHT22;7210;51.502;10.722;2023-04-03T16:09:44;5.30;99.90
14252;DHT22;7210;51.502;10.722;2023-04-03T16:12:12;5.30;99.90
14252;DHT22;7210;51.502;10.722;2023-04-03T16:14:40;5.40;99.90
14252;DHT22;7210;51.502;10.722;2023-04-03T16:17:07;5.30;99.90
14252;DHT22;7210;51.502;10.722;2023-04-03T16:19:34;5.30;99.90
14252;DHT22;7210;51.502;10.722;2023-04-03T16:22:02;5.30;99.90
14252;DHT22;7210;51.502;10.722;2023-04-03T16:24:29;5.20;99.90
14252;DHT22;7210;51.502;10.722;2023-04-03T16:26:57;5.10;99.90